Portada
METAR-TAF:

METAR-TAF

Aeroports :

Natal, Rio Grande do Norte, Brasil

latitud: 05-46-05S, longitud: 035-22-34W, altitud: 88 m

Observació

L'informe es va fer fa 53 minuts, a les 11:00 UTC
Vent 4 kt del Sud-Oest, variant entre Sud i Oest
Temperatura 23°C
Humitat 94%
Pressió 1017 hPa
Visibilitat: 9000 m
Cel ennuvolat a una alçada de 2400 ft
Escasses núvols a una alçada de 2500 ft, Cumulus congestus.
xàfecs en les proximitats

METAR: SBSG 091100Z 22004KT 170V270 9000 VCSH BKN024 FEW025TCU 23/22 Q1017

Hora: 08:53 (11:53 UTC)

Pronòstic

L'informe es va fer fa 2 hores i 53 minuts, a les 09:00 UTC
Pronòstic vàlid del 09 a les 12 UTC al 10 a les 12 UTC
Vent 10 kt del Sud
Visibilitat 10 km o més
Cel ennuvolat a una alçada de 2300 ft
Evolucionant progressivament
l' 10 a les 01 UTC al 10 a les 03 UTC
Vent 5 kt del Sud-Oest
Escasses núvols a una alçada de 2000 ft

TAF: SBSG 090900Z 0912/1012 18010KT 9999 BKN023 TX29/0916Z TN21/1007Z BECMG 1001/1003 23005KT FEW020 RMK PHD

Observacions i pronòstics meteorològics de més de 4000 aeroports (METAR i TAF).

Les estacions disponibles són els punts grocs i vermells al mapa.

Posi el ratolí al punt desitjat per veure el nom de l'estació.

Feu clic per veure les observacions i els pronòstics meteorològics.

Per canviar el mapa: feu clic els botons verds amb una creu de color negre per apropar; al botó verd amb un guió per allunyar la imatge; o en les fletxes verdes per a mapes adjacents.


METAR-TAF: